Данни от 16.06.2021 г. 01:35:58

Температура вътрешна: 23.4 °C
Температура външна: 16.5 °C
Атмосферно налягане: 992.2 hPa
Атмосферно налягане на морско равнище: 1009.9 hPa
Влажност: 57.6 %



История от последните 24 часа

Дата и часTin [°C]P [hPa]Psl [hPa]H [%]Tout [°C]
   16.06.2021 г. 01:30:57      23.4      992.2      1009.9      57.4      16.4   
   16.06.2021 г. 01:00:58      23.4      992.6      1010.3      57.0      16.4   
   16.06.2021 г. 00:30:57      23.4      993.1      1010.8      57.3      17.1   
   16.06.2021 г. 00:00:58      23.4      992.4      1010.1      57.0      16.5   
   15.06.2021 г. 23:30:57      23.4      992.7      1010.5      56.7      16.0   
   15.06.2021 г. 23:00:58      23.4      993.0      1010.7      56.9      15.8   
   15.06.2021 г. 22:30:57      23.4      993.5      1011.3      56.9      16.1   
   15.06.2021 г. 22:00:58      23.4      993.6      1011.4      56.8      17.4   
   15.06.2021 г. 21:30:57      23.3      993.6      1011.3      56.8      18.0   
   15.06.2021 г. 21:00:58      23.1      992.5      1010.3      57.1      16.5   
   15.06.2021 г. 20:00:58      23.1      993.6      1011.4      56.8      17.4   
   15.06.2021 г. 19:30:57      23.1      993.6      1011.3      56.9      18.1   
   15.06.2021 г. 19:00:58      23.1      993.7      1011.4      56.8      18.0   
   15.06.2021 г. 18:30:57      23.1      994.1      1011.8      56.3      18.5   
   15.06.2021 г. 18:00:58      23.1      994.0      1011.7      56.3      18.0   
   15.06.2021 г. 17:30:57      23.1      994.3      1012.0      56.2      18.0   
   15.06.2021 г. 17:00:58      23.0      994.5      1012.2      54.4      18.3   
   15.06.2021 г. 16:30:57      23.0      994.6      1012.4      53.8      18.4   
   15.06.2021 г. 16:00:58      23.0      995.2      1012.9      53.8      19.0   
   15.06.2021 г. 15:30:57      23.0      995.3      1013.0      53.3      19.4   
   15.06.2021 г. 15:00:58      23.0      995.6      1013.4      52.8      19.3   
   15.06.2021 г. 14:30:58      23.0      996.1      1013.9      52.4      19.9   
   15.06.2021 г. 14:00:58      23.0      996.2      1014.0      52.2      20.3   
   15.06.2021 г. 13:30:58      23.0      996.4      1014.1      51.5      20.4   
   15.06.2021 г. 13:00:58      23.0      996.5      1014.3      52.1      19.9   
   15.06.2021 г. 12:30:58      23.0      996.7      1014.5      51.6      20.0   
   15.06.2021 г. 12:00:58      23.0      996.6      1014.4      52.0      19.8   
   15.06.2021 г. 11:30:58      23.0      996.7      1014.5      52.1      18.9   
   15.06.2021 г. 11:00:58      22.9      997.0      1014.8      52.1      18.9   
   15.06.2021 г. 10:30:58      23.0      997.3      1015.1      52.1      18.6   
   15.06.2021 г. 10:00:58      23.0      997.5      1015.3      52.9      18.3   
   15.06.2021 г. 09:30:58      23.1      997.5      1015.3      53.0      16.6   
   15.06.2021 г. 09:00:58      23.0      997.6      1015.4      53.1      15.9   
   15.06.2021 г. 08:30:58      23.0      997.8      1015.6      52.5      16.5   
   15.06.2021 г. 08:00:58      23.2      997.6      1015.4      54.2      16.0   
   15.06.2021 г. 07:30:58      23.2      997.3      1015.1      54.8      16.0   
   15.06.2021 г. 07:00:58      23.3      997.2      1015.0      55.0      15.6   
   15.06.2021 г. 06:30:58      23.5      997.2      1015.0      54.9      14.9   
   15.06.2021 г. 06:00:57      23.8      997.1      1014.9      56.2      14.6   
   15.06.2021 г. 05:30:58      23.8      997.0      1014.8      55.6      14.8   
   15.06.2021 г. 05:00:57      23.8      996.8      1014.6      55.7      14.8   
   15.06.2021 г. 04:30:58      23.8      996.9      1014.7      55.6      15.1   
   15.06.2021 г. 04:00:57      23.9      996.9      1014.7      55.5      15.6   
   15.06.2021 г. 03:30:58      23.8      997.2      1015.0      55.2      16.8   
   15.06.2021 г. 03:00:57      23.8      996.9      1014.7      54.6      16.8   
   15.06.2021 г. 02:30:58      23.8      997.0      1014.8      55.2      16.5   
   15.06.2021 г. 02:00:57      23.8      997.2      1015.0      55.3      15.8   
   15.06.2021 г. 01:30:58      23.9      997.3      1015.1      54.9      16.3   

BaroSL graphic

TEMPE graphic